sensor_id;sensor_type;location;lat;lon;timestamp;P1;durP1;ratioP1;P2;durP2;ratioP2
3911;SDS011;1971;51.778;10.330;2023-12-28T00:55:25;1.43;;;1.30;;
3911;SDS011;1971;51.778;10.330;2023-12-28T00:57:56;1.37;;;1.20;;
3911;SDS011;1971;51.778;10.330;2023-12-28T01:00:26;227.30;;;31.07;;
3911;SDS011;1971;51.778;10.330;2023-12-28T01:02:56;12.50;;;6.03;;
3911;SDS011;1971;51.778;10.330;2023-12-28T01:05:27;59.53;;;6.87;;
3911;SDS011;1971;51.778;10.330;2023-12-28T01:07:57;81.07;;;22.10;;
3911;SDS011;1971;51.778;10.330;2023-12-28T01:10:30;85.00;;;41.07;;
3911;SDS011;1971;51.778;10.330;2023-12-28T01:13:00;58.27;;;10.60;;
3911;SDS011;1971;51.778;10.330;2023-12-28T01:15:31;43.00;;;3.10;;
3911;SDS011;1971;51.778;10.330;2023-12-28T01:18:01;3.73;;;1.37;;
3911;SDS011;1971;51.778;10.330;2023-12-28T01:20:31;1.87;;;1.73;;
3911;SDS011;1971;51.778;10.330;2023-12-28T01:23:03;1.60;;;1.50;;
3911;SDS011;1971;51.778;10.330;2023-12-28T01:25:36;3.87;;;1.80;;
3911;SDS011;1971;51.778;10.330;2023-12-28T01:28:06;1.50;;;1.40;;
3911;SDS011;1971;51.778;10.330;2023-12-28T01:30:36;1.53;;;1.43;;
3911;SDS011;1971;51.778;10.330;2023-12-28T01:33:06;2.50;;;2.30;;
3911;SDS011;1971;51.778;10.330;2023-12-28T01:35:37;1.20;;;1.10;;
3911;SDS011;1971;51.778;10.330;2023-12-28T01:38:07;1.37;;;1.27;;
3911;SDS011;1971;51.778;10.330;2023-12-28T01:40:40;1.50;;;1.40;;
3911;SDS011;1971;51.778;10.330;2023-12-28T01:43:14;2.50;;;1.80;;
3911;SDS011;1971;51.778;10.330;2023-12-28T01:45:44;2.40;;;1.57;;
3911;SDS011;1971;51.778;10.330;2023-12-28T01:48:15;1.60;;;1.50;;
3911;SDS011;1971;51.778;10.330;2023-12-28T01:50:46;1.60;;;1.50;;
3911;SDS011;1971;51.778;10.330;2023-12-28T01:53:16;1.73;;;1.63;;
3911;SDS011;1971;51.778;10.330;2023-12-28T01:55:50;2.17;;;2.07;;
3911;SDS011;1971;51.778;10.330;2023-12-28T01:58:21;4.40;;;1.70;;
3911;SDS011;1971;51.778;10.330;2023-12-28T02:00:55;2.40;;;1.50;;
3911;SDS011;1971;51.778;10.330;2023-12-28T02:03:26;2.67;;;2.03;;
3911;SDS011;1971;51.778;10.330;2023-12-28T02:05:57;2.70;;;1.83;;
3911;SDS011;1971;51.778;10.330;2023-12-28T02:08:29;2.10;;;1.87;;
3911;SDS011;1971;51.778;10.330;2023-12-28T02:11:02;2.17;;;2.07;;
3911;SDS011;1971;51.778;10.330;2023-12-28T02:13:34;2.10;;;1.83;;
3911;SDS011;1971;51.778;10.330;2023-12-28T02:16:06;2.07;;;1.97;;
3911;SDS011;1971;51.778;10.330;2023-12-28T02:18:42;3.30;;;2.40;;
3911;SDS011;1971;51.778;10.330;2023-12-28T02:21:13;2.03;;;1.90;;
3911;SDS011;1971;51.778;10.330;2023-12-28T02:23:48;3.20;;;1.97;;
3911;SDS011;1971;51.778;10.330;2023-12-28T02:26:21;2.07;;;1.97;;
3911;SDS011;1971;51.778;10.330;2023-12-28T02:28:52;2.40;;;2.13;;
3911;SDS011;1971;51.778;10.330;2023-12-28T02:31:25;2.07;;;1.90;;
3911;SDS011;1971;51.778;10.330;2023-12-28T02:34:03;2.23;;;2.03;;
3911;SDS011;1971;51.778;10.330;2023-12-28T02:36:37;3.80;;;2.33;;
3911;SDS011;1971;51.778;10.330;2023-12-28T02:39:11;3.37;;;1.97;;
3911;SDS011;1971;51.778;10.330;2023-12-28T02:41:45;2.27;;;2.17;;
3911;SDS011;1971;51.778;10.330;2023-12-28T02:44:16;2.00;;;1.90;;
3911;SDS011;1971;51.778;10.330;2023-12-28T02:46:46;2.30;;;2.00;;
3911;SDS011;1971;51.778;10.330;2023-12-28T02:49:16;2.70;;;2.27;;
3911;SDS011;1971;51.778;10.330;2023-12-28T02:51:48;2.50;;;2.30;;
3911;SDS011;1971;51.778;10.330;2023-12-28T02:54:19;1999.90;;;999.90;;
3911;SDS011;1971;51.778;10.330;2023-12-28T02:56:52;1999.90;;;999.90;;
3911;SDS011;1971;51.778;10.330;2023-12-28T02:59:22;1999.90;;;999.90;;
3911;SDS011;1971;51.778;10.330;2023-12-28T03:01:52;1999.90;;;999.90;;
3911;SDS011;1971;51.778;10.330;2023-12-28T03:04:22;907.23;;;557.60;;
3911;SDS011;1971;51.778;10.330;2023-12-28T03:06:53;1999.90;;;999.90;;
3911;SDS011;1971;51.778;10.330;2023-12-28T03:09:23;3.50;;;2.60;;
3911;SDS011;1971;51.778;10.330;2023-12-28T03:11:56;2.70;;;2.50;;
3911;SDS011;1971;51.778;10.330;2023-12-28T03:14:27;2.73;;;2.47;;
3911;SDS011;1971;51.778;10.330;2023-12-28T03:16:57;2.23;;;2.03;;
3911;SDS011;1971;51.778;10.330;2023-12-28T03:19:28;2.80;;;2.10;;
3911;SDS011;1971;51.778;10.330;2023-12-28T03:21:58;3.60;;;2.80;;
3911;SDS011;1971;51.778;10.330;2023-12-28T03:24:29;2.50;;;2.27;;
3911;SDS011;1971;51.778;10.330;2023-12-28T03:27:03;3.10;;;2.07;;
3911;SDS011;1971;51.778;10.330;2023-12-28T03:29:33;3.80;;;2.30;;
3911;SDS011;1971;51.778;10.330;2023-12-28T03:32:04;2.63;;;2.43;;
3911;SDS011;1971;51.778;10.330;2023-12-28T03:34:35;2.83;;;2.57;;
3911;SDS011;1971;51.778;10.330;2023-12-28T03:37:05;2.43;;;2.23;;
3911;SDS011;1971;51.778;10.330;2023-12-28T03:39:37;2.80;;;2.60;;
3911;SDS011;1971;51.778;10.330;2023-12-28T03:42:10;2.13;;;1.70;;
3911;SDS011;1971;51.778;10.330;2023-12-28T03:44:41;2.77;;;2.57;;
3911;SDS011;1971;51.778;10.330;2023-12-28T03:47:11;2.70;;;2.50;;
3911;SDS011;1971;51.778;10.330;2023-12-28T03:49:41;2.87;;;2.57;;
3911;SDS011;1971;51.778;10.330;2023-12-28T03:52:12;3.20;;;2.50;;
3911;SDS011;1971;51.778;10.330;2023-12-28T03:54:42;2.30;;;2.10;;
3911;SDS011;1971;51.778;10.330;2023-12-28T03:57:15;5.13;;;2.40;;
3911;SDS011;1971;51.778;10.330;2023-12-28T03:59:46;2.40;;;2.03;;
3911;SDS011;1971;51.778;10.330;2023-12-28T04:02:17;2.50;;;2.00;;
3911;SDS011;1971;51.778;10.330;2023-12-28T04:04:47;2.30;;;2.10;;
3911;SDS011;1971;51.778;10.330;2023-12-28T04:07:18;3.00;;;2.70;;
3911;SDS011;1971;51.778;10.330;2023-12-28T04:09:49;2.23;;;2.10;;
3911;SDS011;1971;51.778;10.330;2023-12-28T04:12:21;2.40;;;2.20;;
3911;SDS011;1971;51.778;10.330;2023-12-28T04:14:52;2.10;;;2.00;;
3911;SDS011;1971;51.778;10.330;2023-12-28T04:17:22;2.17;;;2.03;;
3911;SDS011;1971;51.778;10.330;2023-12-28T04:19:52;2.63;;;2.30;;
3911;SDS011;1971;51.778;10.330;2023-12-28T04:22:22;2.83;;;2.63;;
3911;SDS011;1971;51.778;10.330;2023-12-28T04:24:53;2.50;;;2.33;;
3911;SDS011;1971;51.778;10.330;2023-12-28T04:27:26;2.37;;;2.17;;
3911;SDS011;1971;51.778;10.330;2023-12-28T04:29:56;2.60;;;2.37;;
3911;SDS011;1971;51.778;10.330;2023-12-28T04:32:26;3.47;;;2.97;;
3911;SDS011;1971;51.778;10.330;2023-12-28T04:34:56;2.60;;;2.40;;
3911;SDS011;1971;51.778;10.330;2023-12-28T04:37:27;2.57;;;2.37;;
3911;SDS011;1971;51.778;10.330;2023-12-28T04:39:57;2.50;;;2.30;;
3911;SDS011;1971;51.778;10.330;2023-12-28T04:42:30;2.40;;;2.20;;
3911;SDS011;1971;51.778;10.330;2023-12-28T04:45:00;2.40;;;2.20;;
3911;SDS011;1971;51.778;10.330;2023-12-28T04:47:30;1.87;;;1.63;;
3911;SDS011;1971;51.778;10.330;2023-12-28T04:50:00;3.00;;;2.80;;
3911;SDS011;1971;51.778;10.330;2023-12-28T04:52:30;2.77;;;2.60;;
3911;SDS011;1971;51.778;10.330;2023-12-28T04:55:00;2.40;;;2.30;;
3911;SDS011;1971;51.778;10.330;2023-12-28T04:57:34;3.00;;;2.70;;
3911;SDS011;1971;51.778;10.330;2023-12-28T05:00:05;2.53;;;2.33;;
3911;SDS011;1971;51.778;10.330;2023-12-28T05:02:36;2.70;;;2.50;;
3911;SDS011;1971;51.778;10.330;2023-12-28T05:05:06;2.60;;;2.40;;
3911;SDS011;1971;51.778;10.330;2023-12-28T05:07:39;3.40;;;2.67;;
3911;SDS011;1971;51.778;10.330;2023-12-28T05:10:10;3.03;;;2.70;;
3911;SDS011;1971;51.778;10.330;2023-12-28T05:12:42;3.43;;;2.70;;
3911;SDS011;1971;51.778;10.330;2023-12-28T05:15:13;2.97;;;2.67;;
3911;SDS011;1971;51.778;10.330;2023-12-28T05:17:45;2.70;;;2.50;;
3911;SDS011;1971;51.778;10.330;2023-12-28T05:20:17;2.93;;;2.73;;
3911;SDS011;1971;51.778;10.330;2023-12-28T05:22:47;2.90;;;2.40;;
3911;SDS011;1971;51.778;10.330;2023-12-28T05:25:17;3.27;;;2.97;;
3911;SDS011;1971;51.778;10.330;2023-12-28T05:27:49;2.77;;;2.50;;
3911;SDS011;1971;51.778;10.330;2023-12-28T05:30:20;2.90;;;2.70;;
3911;SDS011;1971;51.778;10.330;2023-12-28T05:32:50;2.70;;;2.50;;
3911;SDS011;1971;51.778;10.330;2023-12-28T05:35:20;4.33;;;3.13;;
3911;SDS011;1971;51.778;10.330;2023-12-28T05:37:50;3.30;;;3.00;;
3911;SDS011;1971;51.778;10.330;2023-12-28T05:40:21;3.53;;;2.47;;
3911;SDS011;1971;51.778;10.330;2023-12-28T05:42:54;2.50;;;2.30;;
3911;SDS011;1971;51.778;10.330;2023-12-28T05:45:24;2.57;;;2.37;;
3911;SDS011;1971;51.778;10.330;2023-12-28T05:47:54;2.77;;;2.57;;
3911;SDS011;1971;51.778;10.330;2023-12-28T05:50:25;3.20;;;2.90;;
3911;SDS011;1971;51.778;10.330;2023-12-28T05:52:55;3.10;;;2.70;;
3911;SDS011;1971;51.778;10.330;2023-12-28T05:55:25;3.00;;;2.80;;
3911;SDS011;1971;51.778;10.330;2023-12-28T05:57:58;2.40;;;2.20;;
3911;SDS011;1971;51.778;10.330;2023-12-28T06:00:28;3.07;;;2.77;;
3911;SDS011;1971;51.778;10.330;2023-12-28T06:02:58;3.27;;;2.60;;
3911;SDS011;1971;51.778;10.330;2023-12-28T06:05:30;2.87;;;2.67;;
3911;SDS011;1971;51.778;10.330;2023-12-28T06:08:01;3.27;;;2.97;;
3911;SDS011;1971;51.778;10.330;2023-12-28T06:10:31;3.10;;;2.80;;
3911;SDS011;1971;51.778;10.330;2023-12-28T06:13:04;2.90;;;2.70;;
3911;SDS011;1971;51.778;10.330;2023-12-28T06:15:34;2.90;;;2.70;;
3911;SDS011;1971;51.778;10.330;2023-12-28T06:18:05;1.60;;;1.50;;
3911;SDS011;1971;51.778;10.330;2023-12-28T06:20:35;2.90;;;2.70;;
3911;SDS011;1971;51.778;10.330;2023-12-28T06:23:06;2.60;;;2.40;;
3911;SDS011;1971;51.778;10.330;2023-12-28T06:25:37;2.10;;;2.00;;
3911;SDS011;1971;51.778;10.330;2023-12-28T06:28:10;3.27;;;2.97;;
3911;SDS011;1971;51.778;10.330;2023-12-28T06:30:40;2.60;;;2.23;;
3911;SDS011;1971;51.778;10.330;2023-12-28T06:33:10;3.60;;;2.70;;
3911;SDS011;1971;51.778;10.330;2023-12-28T06:35:43;2.73;;;2.53;;
3911;SDS011;1971;51.778;10.330;2023-12-28T06:38:13;2.20;;;2.00;;
3911;SDS011;1971;51.778;10.330;2023-12-28T06:40:43;2.70;;;2.50;;
3911;SDS011;1971;51.778;10.330;2023-12-28T06:43:15;2.70;;;2.50;;
3911;SDS011;1971;51.778;10.330;2023-12-28T06:45:45;2.70;;;2.50;;
3911;SDS011;1971;51.778;10.330;2023-12-28T06:48:15;2.80;;;2.60;;
3911;SDS011;1971;51.778;10.330;2023-12-28T06:50:46;1.73;;;1.63;;
3911;SDS011;1971;51.778;10.330;2023-12-28T06:53:16;2.40;;;2.20;;
3911;SDS011;1971;51.778;10.330;2023-12-28T06:55:46;2.73;;;2.53;;
3911;SDS011;1971;51.778;10.330;2023-12-28T06:58:18;2.57;;;2.37;;
3911;SDS011;1971;51.778;10.330;2023-12-28T07:00:48;2.57;;;2.37;;
3911;SDS011;1971;51.778;10.330;2023-12-28T07:03:19;2.30;;;2.10;;
3911;SDS011;1971;51.778;10.330;2023-12-28T07:05:51;2.70;;;2.50;;
3911;SDS011;1971;51.778;10.330;2023-12-28T07:08:22;2.40;;;2.30;;
3911;SDS011;1971;51.778;10.330;2023-12-28T07:10:52;3.20;;;2.90;;
3911;SDS011;1971;51.778;10.330;2023-12-28T07:13:25;2.97;;;2.77;;
3911;SDS011;1971;51.778;10.330;2023-12-28T07:15:56;2.70;;;2.50;;
3911;SDS011;1971;51.778;10.330;2023-12-28T07:18:27;2.50;;;2.30;;
3911;SDS011;1971;51.778;10.330;2023-12-28T07:20:57;2.50;;;2.40;;
3911;SDS011;1971;51.778;10.330;2023-12-28T07:23:27;3.27;;;3.00;;
3911;SDS011;1971;51.778;10.330;2023-12-28T07:25:57;2.77;;;2.57;;
3911;SDS011;1971;51.778;10.330;2023-12-28T07:28:30;2.90;;;2.70;;
3911;SDS011;1971;51.778;10.330;2023-12-28T07:31:00;3.40;;;3.13;;
3911;SDS011;1971;51.778;10.330;2023-12-28T07:33:30;2.47;;;2.37;;
3911;SDS011;1971;51.778;10.330;2023-12-28T07:36:01;2.50;;;2.30;;
3911;SDS011;1971;51.778;10.330;2023-12-28T07:38:32;2.53;;;2.33;;
3911;SDS011;1971;51.778;10.330;2023-12-28T07:41:05;3.20;;;3.00;;
3911;SDS011;1971;51.778;10.330;2023-12-28T07:43:38;2.87;;;2.67;;
3911;SDS011;1971;51.778;10.330;2023-12-28T07:46:08;3.20;;;2.90;;
3911;SDS011;1971;51.778;10.330;2023-12-28T07:48:38;3.00;;;2.80;;
3911;SDS011;1971;51.778;10.330;2023-12-28T07:51:09;4.40;;;2.70;;
3911;SDS011;1971;51.778;10.330;2023-12-28T07:53:42;2.47;;;2.13;;
3911;SDS011;1971;51.778;10.330;2023-12-28T07:56:12;3.07;;;2.43;;
3911;SDS011;1971;51.778;10.330;2023-12-28T07:58:44;3.60;;;3.40;;
3911;SDS011;1971;51.778;10.330;2023-12-28T08:01:15;4.53;;;2.80;;
3911;SDS011;1971;51.778;10.330;2023-12-28T08:03:46;3.13;;;2.80;;
3911;SDS011;1971;51.778;10.330;2023-12-28T08:06:16;3.03;;;2.40;;
3911;SDS011;1971;51.778;10.330;2023-12-28T08:08:46;2.43;;;2.10;;
3911;SDS011;1971;51.778;10.330;2023-12-28T08:11:16;2.70;;;2.50;;
3911;SDS011;1971;51.778;10.330;2023-12-28T08:13:49;3.30;;;3.00;;
3911;SDS011;1971;51.778;10.330;2023-12-28T08:16:19;3.20;;;2.70;;
3911;SDS011;1971;51.778;10.330;2023-12-28T08:18:49;3.17;;;2.90;;
3911;SDS011;1971;51.778;10.330;2023-12-28T08:21:20;3.10;;;2.80;;
3911;SDS011;1971;51.778;10.330;2023-12-28T08:23:50;2.60;;;2.40;;
3911;SDS011;1971;51.778;10.330;2023-12-28T08:26:20;2.60;;;2.40;;
3911;SDS011;1971;51.778;10.330;2023-12-28T08:28:53;3.37;;;3.07;;
3911;SDS011;1971;51.778;10.330;2023-12-28T08:31:23;3.13;;;2.93;;
3911;SDS011;1971;51.778;10.330;2023-12-28T08:33:53;4.47;;;2.87;;
3911;SDS011;1971;51.778;10.330;2023-12-28T08:36:24;2.70;;;2.50;;
3911;SDS011;1971;51.778;10.330;2023-12-28T08:38:54;3.27;;;3.07;;
3911;SDS011;1971;51.778;10.330;2023-12-28T08:41:24;3.40;;;3.10;;
3911;SDS011;1971;51.778;10.330;2023-12-28T08:43:57;2.97;;;2.77;;
3911;SDS011;1971;51.778;10.330;2023-12-28T08:46:27;3.73;;;2.80;;
3911;SDS011;1971;51.778;10.330;2023-12-28T08:48:58;3.10;;;2.90;;
3911;SDS011;1971;51.778;10.330;2023-12-28T08:51:29;3.00;;;2.73;;
3911;SDS011;1971;51.778;10.330;2023-12-28T08:53:59;3.07;;;2.67;;
3911;SDS011;1971;51.778;10.330;2023-12-28T08:56:29;3.50;;;3.20;;
3911;SDS011;1971;51.778;10.330;2023-12-28T08:59:01;3.10;;;2.90;;
3911;SDS011;1971;51.778;10.330;2023-12-28T09:01:31;4.90;;;2.60;;
3911;SDS011;1971;51.778;10.330;2023-12-28T09:04:02;4.80;;;3.00;;
3911;SDS011;1971;51.778;10.330;2023-12-28T09:06:32;3.03;;;2.73;;
3911;SDS011;1971;51.778;10.330;2023-12-28T09:09:02;2.80;;;2.60;;
3911;SDS011;1971;51.778;10.330;2023-12-28T09:11:33;3.27;;;2.87;;
3911;SDS011;1971;51.778;10.330;2023-12-28T09:14:05;2.73;;;2.53;;
3911;SDS011;1971;51.778;10.330;2023-12-28T09:16:35;3.17;;;2.87;;
3911;SDS011;1971;51.778;10.330;2023-12-28T09:19:07;2.67;;;2.47;;
3911;SDS011;1971;51.778;10.330;2023-12-28T09:21:37;4.53;;;2.87;;
3911;SDS011;1971;51.778;10.330;2023-12-28T09:24:08;3.97;;;3.67;;
3911;SDS011;1971;51.778;10.330;2023-12-28T09:26:38;3.10;;;2.80;;
3911;SDS011;1971;51.778;10.330;2023-12-28T09:29:13;2.67;;;2.47;;
3911;SDS011;1971;51.778;10.330;2023-12-28T09:31:43;2.63;;;2.37;;
3911;SDS011;1971;51.778;10.330;2023-12-28T09:34:15;2.13;;;1.87;;
3911;SDS011;1971;51.778;10.330;2023-12-28T09:36:46;2.90;;;2.70;;
3911;SDS011;1971;51.778;10.330;2023-12-28T09:39:16;3.00;;;2.80;;
3911;SDS011;1971;51.778;10.330;2023-12-28T09:41:48;3.73;;;3.40;;
3911;SDS011;1971;51.778;10.330;2023-12-28T09:44:26;3.53;;;2.80;;
3911;SDS011;1971;51.778;10.330;2023-12-28T09:47:01;3.20;;;3.00;;
3911;SDS011;1971;51.778;10.330;2023-12-28T09:49:33;3.13;;;2.83;;
3911;SDS011;1971;51.778;10.330;2023-12-28T09:52:06;4.40;;;2.90;;
3911;SDS011;1971;51.778;10.330;2023-12-28T09:54:37;2.63;;;2.43;;
3911;SDS011;1971;51.778;10.330;2023-12-28T09:57:07;2.87;;;2.67;;
3911;SDS011;1971;51.778;10.330;2023-12-28T09:59:41;3.80;;;3.03;;
3911;SDS011;1971;51.778;10.330;2023-12-28T10:02:11;2.60;;;2.40;;
3911;SDS011;1971;51.778;10.330;2023-12-28T10:04:41;2.60;;;2.40;;
3911;SDS011;1971;51.778;10.330;2023-12-28T10:07:12;2.80;;;2.60;;
3911;SDS011;1971;51.778;10.330;2023-12-28T10:09:43;2.50;;;2.30;;
3911;SDS011;1971;51.778;10.330;2023-12-28T10:12:13;3.30;;;2.10;;
3911;SDS011;1971;51.778;10.330;2023-12-28T10:14:47;2.90;;;2.70;;
3911;SDS011;1971;51.778;10.330;2023-12-28T10:17:20;2.87;;;2.63;;
3911;SDS011;1971;51.778;10.330;2023-12-28T10:19:50;18.33;;;5.70;;
3911;SDS011;1971;51.778;10.330;2023-12-28T10:22:23;1999.90;;;999.90;;
3911;SDS011;1971;51.778;10.330;2023-12-28T10:24:53;2.90;;;2.70;;
3911;SDS011;1971;51.778;10.330;2023-12-28T10:27:23;3.10;;;2.67;;
3911;SDS011;1971;51.778;10.330;2023-12-28T10:29:56;2.87;;;2.20;;
3911;SDS011;1971;51.778;10.330;2023-12-28T10:32:27;2.93;;;2.63;;
3911;SDS011;1971;51.778;10.330;2023-12-28T10:34:58;2.30;;;2.10;;
3911;SDS011;1971;51.778;10.330;2023-12-28T10:37:29;4.00;;;2.50;;
3911;SDS011;1971;51.778;10.330;2023-12-28T10:40:03;2.60;;;2.40;;
3911;SDS011;1971;51.778;10.330;2023-12-28T10:42:37;3.27;;;2.60;;
3911;SDS011;1971;51.778;10.330;2023-12-28T10:45:22;2.70;;;2.47;;
3911;SDS011;1971;51.778;10.330;2023-12-28T10:47:58;2.93;;;2.03;;
3911;SDS011;1971;51.778;10.330;2023-12-28T10:50:39;3.03;;;2.73;;
3911;SDS011;1971;51.778;10.330;2023-12-28T10:53:26;2.67;;;2.43;;
3911;SDS011;1971;51.778;10.330;2023-12-28T10:56:10;2.90;;;2.37;;
3911;SDS011;1971;51.778;10.330;2023-12-28T10:58:50;4.60;;;3.20;;
3911;SDS011;1971;51.778;10.330;2023-12-28T11:01:31;2.87;;;2.67;;
3911;SDS011;1971;51.778;10.330;2023-12-28T11:04:07;2.50;;;2.30;;
3911;SDS011;1971;51.778;10.330;2023-12-28T11:06:42;2.07;;;1.87;;
3911;SDS011;1971;51.778;10.330;2023-12-28T11:09:13;3.77;;;2.90;;
3911;SDS011;1971;51.778;10.330;2023-12-28T11:11:44;2.73;;;2.50;;
3911;SDS011;1971;51.778;10.330;2023-12-28T11:14:16;2.70;;;2.50;;
3911;SDS011;1971;51.778;10.330;2023-12-28T11:16:50;2.70;;;2.50;;
3911;SDS011;1971;51.778;10.330;2023-12-28T11:19:21;2.30;;;2.10;;
3911;SDS011;1971;51.778;10.330;2023-12-28T11:21:52;3.03;;;2.80;;
3911;SDS011;1971;51.778;10.330;2023-12-28T11:24:23;2.17;;;2.07;;
3911;SDS011;1971;51.778;10.330;2023-12-28T11:26:53;3.83;;;2.17;;
3911;SDS011;1971;51.778;10.330;2023-12-28T11:29:24;1.77;;;1.67;;
3911;SDS011;1971;51.778;10.330;2023-12-28T11:31:57;2.77;;;2.17;;
3911;SDS011;1971;51.778;10.330;2023-12-28T11:34:29;3.20;;;2.10;;
3911;SDS011;1971;51.778;10.330;2023-12-28T11:37:02;5.30;;;2.30;;
3911;SDS011;1971;51.778;10.330;2023-12-28T11:39:36;4.20;;;2.40;;
3911;SDS011;1971;51.778;10.330;2023-12-28T11:42:07;3.07;;;2.20;;
3911;SDS011;1971;51.778;10.330;2023-12-28T11:44:38;8.50;;;3.17;;
3911;SDS011;1971;51.778;10.330;2023-12-28T11:47:13;19.03;;;4.23;;
3911;SDS011;1971;51.778;10.330;2023-12-28T11:49:45;15.40;;;3.13;;
3911;SDS011;1971;51.778;10.330;2023-12-28T11:52:24;15.60;;;2.77;;
3911;SDS011;1971;51.778;10.330;2023-12-28T11:54:56;17.27;;;2.57;;
3911;SDS011;1971;51.778;10.330;2023-12-28T11:57:28;14.00;;;3.17;;
3911;SDS011;1971;51.778;10.330;2023-12-28T11:59:58;5.90;;;2.50;;
3911;SDS011;1971;51.778;10.330;2023-12-28T12:02:34;10.53;;;6.30;;
3911;SDS011;1971;51.778;10.330;2023-12-28T12:05:04;1999.90;;;999.90;;
3911;SDS011;1971;51.778;10.330;2023-12-28T12:07:38;1999.90;;;999.90;;
3911;SDS011;1971;51.778;10.330;2023-12-28T12:10:13;1999.90;;;999.90;;
3911;SDS011;1971;51.778;10.330;2023-12-28T12:12:44;1999.90;;;999.90;;
3911;SDS011;1971;51.778;10.330;2023-12-28T12:15:14;1999.90;;;999.90;;
3911;SDS011;1971;51.778;10.330;2023-12-28T12:17:49;1999.90;;;999.90;;
3911;SDS011;1971;51.778;10.330;2023-12-28T12:20:19;2.80;;;2.60;;
3911;SDS011;1971;51.778;10.330;2023-12-28T12:22:50;5.63;;;2.23;;
3911;SDS011;1971;51.778;10.330;2023-12-28T12:25:21;2.90;;;2.23;;
3911;SDS011;1971;51.778;10.330;2023-12-28T12:27:51;4.17;;;2.40;;
3911;SDS011;1971;51.778;10.330;2023-12-28T12:30:21;2.37;;;2.00;;
3911;SDS011;1971;51.778;10.330;2023-12-28T12:32:54;2.57;;;2.20;;
3911;SDS011;1971;51.778;10.330;2023-12-28T12:35:24;2.90;;;2.30;;
3911;SDS011;1971;51.778;10.330;2023-12-28T12:37:55;2.87;;;2.00;;
3911;SDS011;1971;51.778;10.330;2023-12-28T12:40:25;2.70;;;2.20;;
3911;SDS011;1971;51.778;10.330;2023-12-28T12:42:55;2.40;;;1.80;;
3911;SDS011;1971;51.778;10.330;2023-12-28T12:45:26;2.87;;;2.57;;
3911;SDS011;1971;51.778;10.330;2023-12-28T12:47:58;2.33;;;2.13;;
3911;SDS011;1971;51.778;10.330;2023-12-28T12:50:29;1.97;;;1.50;;
3911;SDS011;1971;51.778;10.330;2023-12-28T12:53:00;3.20;;;2.00;;
3911;SDS011;1971;51.778;10.330;2023-12-28T12:55:30;2.30;;;2.10;;
3911;SDS011;1971;51.778;10.330;2023-12-28T12:57:58;3.73;;;1.73;;
3911;SDS011;1971;51.778;10.330;2023-12-28T13:00:28;2.10;;;1.90;;
3911;SDS011;1971;51.778;10.330;2023-12-28T13:03:01;2.40;;;1.97;;
3911;SDS011;1971;51.778;10.330;2023-12-28T13:05:31;3.93;;;2.03;;
3911;SDS011;1971;51.778;10.330;2023-12-28T13:08:02;2.30;;;2.10;;
3911;SDS011;1971;51.778;10.330;2023-12-28T13:10:32;3.30;;;1.90;;
3911;SDS011;1971;51.778;10.330;2023-12-28T13:13:06;3.53;;;1.90;;
3911;SDS011;1971;51.778;10.330;2023-12-28T13:15:36;2.13;;;1.70;;
3911;SDS011;1971;51.778;10.330;2023-12-28T13:18:09;6.53;;;2.00;;
3911;SDS011;1971;51.778;10.330;2023-12-28T13:20:39;2.23;;;2.00;;
3911;SDS011;1971;51.778;10.330;2023-12-28T13:23:09;2.83;;;2.40;;
3911;SDS011;1971;51.778;10.330;2023-12-28T13:25:39;2.07;;;1.87;;
3911;SDS011;1971;51.778;10.330;2023-12-28T13:28:11;2.73;;;2.13;;
3911;SDS011;1971;51.778;10.330;2023-12-28T13:30:41;3.80;;;2.17;;
3911;SDS011;1971;51.778;10.330;2023-12-28T13:33:14;3.03;;;2.00;;
3911;SDS011;1971;51.778;10.330;2023-12-28T13:35:45;2.27;;;2.03;;
3911;SDS011;1971;51.778;10.330;2023-12-28T13:38:16;4.37;;;2.10;;
3911;SDS011;1971;51.778;10.330;2023-12-28T13:40:46;2.13;;;1.83;;
3911;SDS011;1971;51.778;10.330;2023-12-28T13:43:16;2.23;;;2.10;;
3911;SDS011;1971;51.778;10.330;2023-12-28T13:45:46;2.33;;;1.93;;
3911;SDS011;1971;51.778;10.330;2023-12-28T13:48:19;2.20;;;2.00;;
3911;SDS011;1971;51.778;10.330;2023-12-28T13:50:49;3.20;;;2.00;;
3911;SDS011;1971;51.778;10.330;2023-12-28T13:53:20;1.90;;;1.80;;
3911;SDS011;1971;51.778;10.330;2023-12-28T13:55:50;2.30;;;2.07;;
3911;SDS011;1971;51.778;10.330;2023-12-28T13:58:20;3.00;;;2.27;;
3911;SDS011;1971;51.778;10.330;2023-12-28T14:00:50;4.73;;;2.17;;
3911;SDS011;1971;51.778;10.330;2023-12-28T14:03:24;5.97;;;2.40;;
3911;SDS011;1971;51.778;10.330;2023-12-28T14:05:55;59.67;;;44.80;;
3911;SDS011;1971;51.778;10.330;2023-12-28T14:08:26;2.00;;;1.60;;
3911;SDS011;1971;51.778;10.330;2023-12-28T14:10:56;2.30;;;2.10;;
3911;SDS011;1971;51.778;10.330;2023-12-28T14:13:26;2.17;;;2.03;;
3911;SDS011;1971;51.778;10.330;2023-12-28T14:15:57;2.03;;;1.77;;
3911;SDS011;1971;51.778;10.330;2023-12-28T14:18:30;2.83;;;1.90;;
3911;SDS011;1971;51.778;10.330;2023-12-28T14:21:01;2.87;;;1.80;;
3911;SDS011;1971;51.778;10.330;2023-12-28T14:23:34;2.03;;;1.83;;
3911;SDS011;1971;51.778;10.330;2023-12-28T14:26:05;3.60;;;2.13;;
3911;SDS011;1971;51.778;10.330;2023-12-28T14:28:41;1.90;;;1.80;;
3911;SDS011;1971;51.778;10.330;2023-12-28T14:31:12;2.73;;;2.13;;
3911;SDS011;1971;51.778;10.330;2023-12-28T14:33:46;2.57;;;1.80;;
3911;SDS011;1971;51.778;10.330;2023-12-28T14:36:19;3.00;;;2.03;;
3911;SDS011;1971;51.778;10.330;2023-12-28T14:38:58;2.63;;;2.10;;
3911;SDS011;1971;51.778;10.330;2023-12-28T14:41:34;1.93;;;1.83;;
3911;SDS011;1971;51.778;10.330;2023-12-28T14:44:10;2.50;;;2.00;;
3911;SDS011;1971;51.778;10.330;2023-12-28T14:46:41;2.57;;;1.70;;
3911;SDS011;1971;51.778;10.330;2023-12-28T14:49:13;2.60;;;1.80;;
3911;SDS011;1971;51.778;10.330;2023-12-28T14:51:44;2.00;;;1.77;;
3911;SDS011;1971;51.778;10.330;2023-12-28T14:54:14;2.10;;;1.90;;
3911;SDS011;1971;51.778;10.330;2023-12-28T14:56:44;2.13;;;2.00;;
3911;SDS011;1971;51.778;10.330;2023-12-28T14:59:21;1.70;;;1.60;;
3911;SDS011;1971;51.778;10.330;2023-12-28T15:01:51;4.00;;;1.80;;
3911;SDS011;1971;51.778;10.330;2023-12-28T15:04:24;2.10;;;1.90;;
3911;SDS011;1971;51.778;10.330;2023-12-28T15:06:54;2.13;;;1.70;;
3911;SDS011;1971;51.778;10.330;2023-12-28T15:09:25;2.13;;;1.77;;
3911;SDS011;1971;51.778;10.330;2023-12-28T15:11:55;2.50;;;2.10;;
3911;SDS011;1971;51.778;10.330;2023-12-28T15:14:26;2.20;;;1.60;;
3911;SDS011;1971;51.778;10.330;2023-12-28T15:16:57;3.10;;;2.30;;
3911;SDS011;1971;51.778;10.330;2023-12-28T15:19:31;1.80;;;1.70;;
3911;SDS011;1971;51.778;10.330;2023-12-28T15:22:02;2.10;;;1.73;;
3911;SDS011;1971;51.778;10.330;2023-12-28T15:24:33;2.40;;;1.17;;
3911;SDS011;1971;51.778;10.330;2023-12-28T15:27:04;1.90;;;1.63;;
3911;SDS011;1971;51.778;10.330;2023-12-28T15:29:35;2.07;;;1.87;;
3911;SDS011;1971;51.778;10.330;2023-12-28T15:32:05;1.80;;;1.70;;
3911;SDS011;1971;51.778;10.330;2023-12-28T15:34:38;1.90;;;1.80;;
3911;SDS011;1971;51.778;10.330;2023-12-28T15:37:08;2.93;;;2.17;;
3911;SDS011;1971;51.778;10.330;2023-12-28T15:39:38;2.30;;;1.77;;
3911;SDS011;1971;51.778;10.330;2023-12-28T15:42:09;2.93;;;2.07;;
3911;SDS011;1971;51.778;10.330;2023-12-28T15:44:39;2.00;;;1.90;;
3911;SDS011;1971;51.778;10.330;2023-12-28T15:47:09;3.40;;;1.70;;
3911;SDS011;1971;51.778;10.330;2023-12-28T15:49:45;1.93;;;1.70;;
3911;SDS011;1971;51.778;10.330;2023-12-28T15:52:15;2.70;;;1.50;;
3911;SDS011;1971;51.778;10.330;2023-12-28T15:54:46;1.63;;;1.53;;
3911;SDS011;1971;51.778;10.330;2023-12-28T15:57:16;1.53;;;1.43;;
3911;SDS011;1971;51.778;10.330;2023-12-28T15:59:46;3.13;;;1.73;;
3911;SDS011;1971;51.778;10.330;2023-12-28T16:02:16;4.47;;;2.17;;
3911;SDS011;1971;51.778;10.330;2023-12-28T16:04:49;4.73;;;1.90;;
3911;SDS011;1971;51.778;10.330;2023-12-28T16:07:20;4.97;;;2.87;;
3911;SDS011;1971;51.778;10.330;2023-12-28T16:09:50;5.43;;;2.17;;
3911;SDS011;1971;51.778;10.330;2023-12-28T16:12:20;2.70;;;2.03;;
3911;SDS011;1971;51.778;10.330;2023-12-28T16:14:51;3.00;;;1.77;;
3911;SDS011;1971;51.778;10.330;2023-12-28T16:17:22;2.70;;;1.40;;